Flag for USA

Past Weather in 29°43'49.0"N, 95°26'26.4"W, USA — Yesterday and Last 2 Weeks

Currently: 62 °F. Overcast. (Weather station: Houston Hobby Airport, USA). See more current weather

Past Weather in 29°43'49.0"N, 95°26'26.4"W — Graph

°F

29°43'49.0"N, 95°26'26.4"W Temperature Yesterday

Maximum temperature yesterday: 80 °F (at 10:53 am)
Minimum temperature yesterday: 62 °F (at 10:53 pm)
Average temperature yesterday: 71 °F

High & Low Weather Summary for the Past Weeks

 TemperatureHumidityPressure
High83 °F (Dec 3, 1:53 pm)96% (Dec 2, 7:53 am)30.37 "Hg (Dec 2, 7:53 am)
Low48 °F (Nov 26, 6:53 am)33% (Nov 22, 4:53 pm)29.91 "Hg (Dec 5, 7:04 pm)
Average65 °F75%30.14 "Hg
* Reported Nov 21 11:53 pm — Dec 6 11:53 pm, 29°43'49.0"N, 95°26'26.4"W. Weather by CustomWeather, © 2021

Note: Actual official high and low records may vary slightly from our data, if they occured in-between our weather recording intervals... More about our weather records

29°43'49.0"N, 95°26'26.4"W Weather History for the Previous 24 Hours

Scroll right to see more
 ConditionsComfort  
Time TempWeatherWind HumidityBarometerVisibility
11:53 pm
Mon, Dec 6
62 °FOvercast.10 mph58%30.09 "Hg10 mi
10:53 pm62 °FOvercast.15 mph58%30.09 "Hg10 mi
9:53 pm64 °FMostly cloudy.15 mph52%30.11 "Hg10 mi
8:53 pm64 °FPassing clouds.14 mph58%30.10 "Hg10 mi
7:53 pm65 °FOvercast.16 mph61%30.11 "Hg10 mi
6:53 pm65 °FMostly cloudy.14 mph63%30.10 "Hg10 mi
5:53 pm65 °FMostly cloudy.13 mph68%30.09 "Hg10 mi
5:33 pm65 °FMostly cloudy.14 mph66%30.08 "Hg10 mi
4:53 pm65 °FBroken clouds.15 mph68%30.07 "Hg10 mi
3:53 pm67 °FPartly sunny.17 mph66%30.05 "Hg10 mi
3:37 pm68 °FPartly sunny.20 mph65%30.03 "Hg10 mi
2:53 pm69 °FBroken clouds.16 mph68%30.02 "Hg10 mi
2:36 pm68 °FBroken clouds.15 mph70%30.00 "Hg10 mi
1:53 pm66 °FPartly sunny.20 mph78%30.01 "Hg10 mi
1:36 pm67 °FPartly sunny.18 mph79%30.00 "Hg10 mi
12:53 pm79 °FCloudy.8 mph79%29.98 "Hg10 mi
12:19 pm79 °FMore clouds than sun.8 mph79%29.98 "Hg10 mi
11:53 am75 °FThunderstorms. Cloudy.12 mph82%30.01 "Hg7 mi
11:30 am79 °FThunderstorms. Cloudy.12 mph77%30.00 "Hg10 mi
10:53 am80 °FCloudy.12 mph74%30.02 "Hg10 mi
9:53 am79 °FBroken clouds.13 mph77%30.03 "Hg7 mi
8:53 am77 °FBroken clouds.8 mph85%30.01 "Hg7 mi
7:53 am74 °FBroken clouds.5 mph91%30.00 "Hg10 mi
6:53 am74 °FPartly cloudy.8 mph91%29.97 "Hg10 mi
5:53 am75 °FPartly cloudy.10 mph88%29.96 "Hg10 mi
4:53 am75 °FMostly cloudy.7 mph88%29.95 "Hg10 mi
3:53 am76 °FLight rain. Mostly cloudy.8 mph85%29.95 "Hg10 mi
2:53 am76 °FMostly cloudy.10 mph85%29.95 "Hg10 mi
1:53 am76 °FMostly cloudy.12 mph85%29.95 "Hg10 mi
12:53 am76 °FMostly cloudy.10 mph85%29.94 "Hg10 mi
Weather by CustomWeather, © 2021

See weather overview